createdAt,value
2022-08-16T00:00:03.568Z,41.50
2022-08-16T00:00:55.526Z,42.17
2022-08-16T00:01:54.539Z,43.58
2022-08-16T00:02:54.495Z,43.69
2022-08-16T00:03:54.488Z,43.33
2022-08-16T00:04:54.483Z,43.02
2022-08-16T00:05:57.861Z,41.78
2022-08-16T00:06:54.463Z,43.38
2022-08-16T00:07:57.021Z,43.73
2022-08-16T00:08:54.434Z,45.59
2022-08-16T00:09:54.423Z,46.43
2022-08-16T00:10:54.413Z,44.07
2022-08-16T00:11:55.403Z,43.09
2022-08-16T00:12:54.636Z,43.91
2022-08-16T00:13:55.631Z,43.44
2022-08-16T00:14:56.755Z,41.40
2022-08-16T00:15:54.455Z,43.65
2022-08-16T00:17:00.657Z,43.36
2022-08-16T00:17:57.199Z,42.16
2022-08-16T00:18:54.329Z,41.65
2022-08-16T00:19:55.029Z,41.89
2022-08-16T00:20:54.321Z,41.32
2022-08-16T00:21:56.071Z,40.72
2022-08-16T00:22:54.279Z,41.84
2022-08-16T00:23:54.273Z,45.92
2022-08-16T00:24:54.620Z,45.02
2022-08-16T00:26:35.308Z,42.64
2022-08-16T00:26:55.278Z,39.73
2022-08-16T00:27:54.218Z,41.72
2022-08-16T00:28:54.591Z,44.09
2022-08-16T00:30:08.410Z,44.83
2022-08-16T00:30:55.233Z,42.94
2022-08-16T00:32:01.229Z,43.13
2022-08-16T00:32:57.042Z,41.01
2022-08-16T00:33:54.202Z,41.10
2022-08-16T00:34:54.328Z,40.84
2022-08-16T00:35:54.182Z,40.52
2022-08-16T00:36:55.720Z,39.86
2022-08-16T00:37:58.690Z,40.11
2022-08-16T00:38:56.196Z,41.06
2022-08-16T00:39:57.261Z,47.16
2022-08-16T00:40:54.169Z,48.93
2022-08-16T00:41:54.120Z,49.24
2022-08-16T00:42:54.807Z,46.19
2022-08-16T00:43:54.123Z,44.62
2022-08-16T00:44:54.107Z,43.24
2022-08-16T00:45:57.852Z,43.16
2022-08-16T00:47:02.419Z,42.54
2022-08-16T00:47:55.078Z,42.14
2022-08-16T00:48:54.033Z,42.37
2022-08-16T00:49:56.648Z,43.56
2022-08-16T00:50:55.500Z,43.24
2022-08-16T00:51:55.635Z,42.52
2022-08-16T00:52:54.311Z,41.91
2022-08-16T00:53:54.001Z,41.69
2022-08-16T00:54:53.981Z,42.38
2022-08-16T00:55:53.985Z,42.64
2022-08-16T00:56:58.592Z,40.86
2022-08-16T00:57:59.545Z,41.67
2022-08-16T00:58:54.954Z,42.40
2022-08-16T00:59:58.764Z,43.50
2022-08-16T01:00:54.982Z,46.87
2022-08-16T01:01:53.935Z,42.53
2022-08-16T01:02:53.918Z,42.62
2022-08-16T01:03:53.893Z,43.90
2022-08-16T01:05:09.045Z,44.30
2022-08-16T01:05:54.906Z,43.79
2022-08-16T01:07:01.760Z,43.37
2022-08-16T01:07:54.857Z,43.84
2022-08-16T01:08:53.864Z,44.33
2022-08-16T01:09:53.843Z,45.35
2022-08-16T01:10:53.828Z,45.68
2022-08-16T01:11:55.359Z,45.30
2022-08-16T01:12:53.816Z,43.85
2022-08-16T01:13:53.802Z,43.57
2022-08-16T01:14:53.784Z,43.77
2022-08-16T01:15:53.815Z,44.23
2022-08-16T01:16:53.790Z,44.49
2022-08-16T01:17:55.759Z,44.50
2022-08-16T01:18:53.752Z,45.16
2022-08-16T01:19:57.117Z,44.47
2022-08-16T01:20:53.739Z,44.58
2022-08-16T01:21:53.716Z,44.69
2022-08-16T01:22:53.760Z,47.40
2022-08-16T01:24:00.871Z,46.27
2022-08-16T01:24:55.669Z,46.39
2022-08-16T01:26:00.407Z,47.41
2022-08-16T01:26:54.705Z,46.90
2022-08-16T01:27:53.657Z,47.89
2022-08-16T01:28:53.644Z,47.08
2022-08-16T01:29:57.931Z,46.25
2022-08-16T01:30:54.632Z,48.06
2022-08-16T01:31:53.626Z,44.54
2022-08-16T01:33:02.173Z,45.41
2022-08-16T01:33:55.582Z,43.43
2022-08-16T01:34:53.842Z,45.43
2022-08-16T01:35:53.591Z,42.51
2022-08-16T01:36:56.891Z,42.79
2022-08-16T01:37:54.238Z,40.63
2022-08-16T01:38:57.413Z,42.78
2022-08-16T01:39:53.558Z,45.16
2022-08-16T01:40:53.544Z,44.83
2022-08-16T01:41:53.506Z,44.12
2022-08-16T01:42:53.924Z,43.64
2022-08-16T01:43:54.474Z,47.71
2022-08-16T01:44:53.502Z,48.70
2022-08-16T01:45:57.497Z,45.03
2022-08-16T01:46:53.448Z,46.55
2022-08-16T01:47:53.475Z,47.26
2022-08-16T01:48:53.451Z,48.00
2022-08-16T01:50:43.556Z,46.05
2022-08-16T01:51:09.751Z,47.25
2022-08-16T01:51:54.425Z,48.31
2022-08-16T01:52:53.453Z,46.10
2022-08-16T01:53:54.585Z,44.43
2022-08-16T01:54:53.542Z,45.47
2022-08-16T01:55:53.872Z,45.07
2022-08-16T01:56:53.395Z,45.14
2022-08-16T01:57:56.470Z,45.28
2022-08-16T01:58:53.355Z,45.32
2022-08-16T01:59:54.792Z,48.24
2022-08-16T02:00:53.327Z,48.74
2022-08-16T02:01:59.884Z,46.52
2022-08-16T02:02:54.330Z,44.26
2022-08-16T02:03:53.295Z,46.72
2022-08-16T02:04:54.730Z,45.41
2022-08-16T02:05:53.267Z,47.97
2022-08-16T02:06:53.297Z,46.58
2022-08-16T02:07:53.486Z,48.66
2022-08-16T02:08:53.268Z,47.53
2022-08-16T02:09:57.191Z,46.33
2022-08-16T02:10:54.221Z,46.22
2022-08-16T02:11:53.691Z,43.57
2022-08-16T02:12:59.839Z,43.66
2022-08-16T02:13:54.859Z,43.87
2022-08-16T02:14:53.222Z,45.93
2022-08-16T02:15:53.193Z,43.06
2022-08-16T02:16:53.164Z,44.62
2022-08-16T02:17:53.187Z,42.38
2022-08-16T02:18:53.156Z,43.14
2022-08-16T02:19:58.997Z,42.27
2022-08-16T02:20:54.139Z,42.83
2022-08-16T02:22:08.416Z,43.23
2022-08-16T02:22:55.283Z,43.36
2022-08-16T02:23:55.648Z,43.54
2022-08-16T02:24:53.099Z,40.67
2022-08-16T02:25:54.667Z,41.06
2022-08-16T02:26:54.060Z,43.17
2022-08-16T02:27:53.054Z,44.01
2022-08-16T02:28:53.040Z,45.11
2022-08-16T02:29:53.057Z,45.37
2022-08-16T02:30:54.052Z,45.34
2022-08-16T02:32:03.212Z,44.63
2022-08-16T02:32:54.032Z,43.21
2022-08-16T02:33:52.986Z,42.03
2022-08-16T02:34:56.425Z,43.30
2022-08-16T02:35:58.150Z,43.03
2022-08-16T02:36:53.964Z,42.66
2022-08-16T02:37:53.450Z,44.16
2022-08-16T02:38:52.974Z,46.80
2022-08-16T02:39:54.047Z,46.39
2022-08-16T02:40:54.399Z,47.10
2022-08-16T02:41:53.205Z,47.03
2022-08-16T02:42:53.098Z,46.70
2022-08-16T02:43:52.892Z,46.57
2022-08-16T02:44:52.881Z,45.92
2022-08-16T02:45:52.879Z,46.22
2022-08-16T02:46:53.887Z,45.00
2022-08-16T02:48:00.468Z,46.21
2022-08-16T02:48:53.843Z,48.11
2022-08-16T02:49:59.312Z,46.45
2022-08-16T02:51:06.708Z,45.57
2022-08-16T02:51:53.833Z,46.08
2022-08-16T02:52:52.802Z,47.51
2022-08-16T02:53:52.876Z,44.82
2022-08-16T02:54:55.435Z,44.13
2022-08-16T02:55:52.773Z,43.28
2022-08-16T02:56:52.769Z,46.87
2022-08-16T02:57:53.886Z,46.98
2022-08-16T02:58:52.750Z,45.75
2022-08-16T02:59:52.728Z,48.18
2022-08-16T03:00:52.775Z,46.09
2022-08-16T03:01:52.730Z,45.17
2022-08-16T03:02:55.753Z,45.58
2022-08-16T03:04:29.278Z,44.18
2022-08-16T03:04:54.130Z,43.89
2022-08-16T03:05:53.222Z,46.27
2022-08-16T03:06:56.622Z,50.21
2022-08-16T03:07:52.653Z,45.41
2022-08-16T03:08:53.400Z,45.03
2022-08-16T03:09:52.642Z,45.50
2022-08-16T03:10:52.638Z,45.87
2022-08-16T03:11:52.661Z,47.65
2022-08-16T03:12:55.493Z,48.11
2022-08-16T03:13:53.029Z,50.30
2022-08-16T03:14:52.576Z,49.48
2022-08-16T03:15:52.581Z,53.88
2022-08-16T03:16:59.392Z,49.21
2022-08-16T03:17:54.249Z,48.90
2022-08-16T03:18:52.568Z,50.82
2022-08-16T03:20:00.082Z,53.46
2022-08-16T03:20:55.658Z,51.49
2022-08-16T03:21:52.526Z,54.60
2022-08-16T03:22:52.501Z,51.67
2022-08-16T03:23:52.502Z,53.20
2022-08-16T03:24:52.494Z,51.08
2022-08-16T03:25:52.512Z,51.49
2022-08-16T03:26:52.469Z,51.04
2022-08-16T03:27:52.463Z,50.45
2022-08-16T03:28:52.473Z,52.80
2022-08-16T03:29:54.302Z,53.50
2022-08-16T03:30:52.444Z,51.97
2022-08-16T03:31:52.552Z,51.39
2022-08-16T03:32:52.483Z,48.94
2022-08-16T03:33:52.403Z,51.14
2022-08-16T03:34:52.372Z,46.63
2022-08-16T03:35:56.963Z,49.53
2022-08-16T03:36:53.347Z,48.61
2022-08-16T03:38:02.620Z,51.39
2022-08-16T03:38:53.392Z,48.04
2022-08-16T03:39:56.660Z,51.93
2022-08-16T03:40:53.330Z,48.54
2022-08-16T03:41:59.937Z,49.40
2022-08-16T03:43:00.396Z,47.85
2022-08-16T03:43:53.305Z,50.34
2022-08-16T03:45:03.511Z,49.79
2022-08-16T03:45:53.570Z,48.22
2022-08-16T03:46:52.281Z,49.18
2022-08-16T03:47:58.523Z,47.64
2022-08-16T03:48:53.264Z,47.44
2022-08-16T03:49:52.485Z,48.74
2022-08-16T03:51:00.109Z,51.08
2022-08-16T03:51:53.208Z,51.68
2022-08-16T03:52:53.869Z,53.83
2022-08-16T03:54:00.676Z,54.02
2022-08-16T03:54:59.162Z,53.45
2022-08-16T03:55:53.183Z,54.14
2022-08-16T03:56:57.926Z,51.34
2022-08-16T03:57:53.174Z,50.30
2022-08-16T03:58:52.645Z,49.80
2022-08-16T03:59:52.141Z,52.53
2022-08-16T04:00:56.926Z,51.02
2022-08-16T04:01:53.681Z,53.68
2022-08-16T04:02:52.100Z,52.86
2022-08-16T04:03:52.733Z,51.10
2022-08-16T04:04:52.112Z,51.94
2022-08-16T04:05:54.172Z,52.09
2022-08-16T04:06:52.076Z,52.93
2022-08-16T04:07:52.063Z,54.32
2022-08-16T04:08:52.055Z,53.04
2022-08-16T04:09:52.032Z,50.78
2022-08-16T04:10:52.025Z,51.32
2022-08-16T04:11:52.024Z,53.32
2022-08-16T04:12:54.314Z,51.10
2022-08-16T04:14:00.333Z,51.30
2022-08-16T04:14:52.989Z,50.13
2022-08-16T04:15:52.874Z,51.42
2022-08-16T04:16:51.963Z,51.30
2022-08-16T04:17:51.972Z,53.27
2022-08-16T04:18:51.963Z,52.81
2022-08-16T04:19:54.964Z,54.61
2022-08-16T04:20:52.947Z,55.09
2022-08-16T04:21:51.940Z,53.76
2022-08-16T04:22:51.927Z,50.93
2022-08-16T04:23:51.893Z,52.26
2022-08-16T04:24:55.290Z,53.13
2022-08-16T04:25:52.917Z,56.12
2022-08-16T04:26:51.845Z,52.96
2022-08-16T04:27:55.624Z,54.17
2022-08-16T04:29:14.624Z,53.22
2022-08-16T04:29:52.853Z,55.48
2022-08-16T04:30:51.824Z,54.22
2022-08-16T04:31:55.579Z,53.40
2022-08-16T04:32:52.804Z,53.07
2022-08-16T04:33:51.793Z,51.54
2022-08-16T04:34:51.800Z,53.60
2022-08-16T04:35:51.798Z,53.22
2022-08-16T04:36:51.763Z,52.86
2022-08-16T04:37:53.876Z,55.83
2022-08-16T04:38:52.413Z,55.29
2022-08-16T04:39:55.582Z,49.89
2022-08-16T04:40:51.731Z,50.47
2022-08-16T04:41:56.898Z,54.43
2022-08-16T04:42:52.836Z,53.54
2022-08-16T04:43:51.723Z,53.16
2022-08-16T04:44:54.448Z,55.83
2022-08-16T04:46:00.361Z,52.73
2022-08-16T04:47:03.122Z,54.17
2022-08-16T04:47:56.163Z,53.82
2022-08-16T04:48:51.673Z,51.09
2022-08-16T04:49:52.282Z,49.93
2022-08-16T04:50:51.623Z,52.30
2022-08-16T04:51:53.697Z,52.32
2022-08-16T04:52:51.626Z,48.39
2022-08-16T04:53:51.944Z,52.39
2022-08-16T04:54:51.598Z,53.48
2022-08-16T04:55:53.489Z,54.48
2022-08-16T04:56:51.565Z,49.56
2022-08-16T04:57:53.249Z,53.34
2022-08-16T04:58:51.558Z,48.00
2022-08-16T04:59:54.312Z,49.84
2022-08-16T05:00:51.524Z,51.82
2022-08-16T05:01:58.087Z,52.16
2022-08-16T05:02:55.654Z,48.70
2022-08-16T05:04:00.752Z,49.06
2022-08-16T05:04:52.510Z,47.91
2022-08-16T05:05:59.007Z,48.66
2022-08-16T05:06:52.472Z,50.38
2022-08-16T05:07:58.511Z,48.92
2022-08-16T05:08:52.463Z,50.47
2022-08-16T05:09:51.455Z,47.58
2022-08-16T05:10:51.418Z,49.84
2022-08-16T05:11:51.415Z,49.52
2022-08-16T05:12:51.403Z,54.09
2022-08-16T05:13:51.780Z,51.94
2022-08-16T05:15:01.832Z,51.32
2022-08-16T05:15:52.390Z,53.31
2022-08-16T05:16:52.118Z,51.36
2022-08-16T05:17:58.424Z,50.90
2022-08-16T05:18:52.356Z,48.63
2022-08-16T05:19:57.314Z,54.67
2022-08-16T05:20:54.216Z,50.09
2022-08-16T05:21:52.297Z,52.18
2022-08-16T05:22:51.300Z,53.04
2022-08-16T05:23:55.414Z,51.52
2022-08-16T05:24:54.923Z,46.32
2022-08-16T05:25:51.316Z,55.70
2022-08-16T05:26:51.772Z,56.72
2022-08-16T05:27:51.254Z,45.42
2022-08-16T05:28:55.483Z,49.27
2022-08-16T05:29:57.642Z,45.05
2022-08-16T05:30:52.236Z,50.03
2022-08-16T05:31:53.220Z,47.20
2022-08-16T05:32:51.493Z,50.62
2022-08-16T05:33:53.589Z,50.95
2022-08-16T05:34:51.191Z,51.32
2022-08-16T05:35:54.617Z,50.79
2022-08-16T05:36:51.531Z,49.06
2022-08-16T05:37:51.177Z,51.79
2022-08-16T05:38:51.163Z,50.64
2022-08-16T05:39:51.176Z,45.57
2022-08-16T05:40:57.234Z,51.16
2022-08-16T05:41:52.215Z,45.97
2022-08-16T05:42:51.351Z,47.36
2022-08-16T05:43:51.099Z,46.72
2022-08-16T05:44:52.106Z,53.06
2022-08-16T05:45:51.064Z,47.32
2022-08-16T05:46:51.062Z,52.47
2022-08-16T05:48:00.374Z,48.74
2022-08-16T05:48:54.972Z,47.13
2022-08-16T05:49:52.059Z,52.10
2022-08-16T05:50:52.985Z,48.71
2022-08-16T05:51:51.016Z,46.16
2022-08-16T05:52:51.009Z,47.89
2022-08-16T05:53:51.021Z,52.09
2022-08-16T05:55:01.634Z,45.98
2022-08-16T05:55:51.968Z,49.05
2022-08-16T05:56:50.952Z,52.77
2022-08-16T05:57:52.641Z,53.10
2022-08-16T05:58:50.994Z,48.69
2022-08-16T05:59:59.851Z,46.59
2022-08-16T06:00:51.978Z,50.29
2022-08-16T06:01:50.974Z,49.49
2022-08-16T06:02:50.947Z,45.96
2022-08-16T06:03:50.922Z,46.41
2022-08-16T06:04:50.908Z,49.79
2022-08-16T06:05:50.894Z,45.49
2022-08-16T06:06:56.498Z,47.14
2022-08-16T06:07:58.208Z,47.05
2022-08-16T06:08:51.832Z,47.38
2022-08-16T06:09:50.843Z,48.72
2022-08-16T06:11:07.693Z,48.92
2022-08-16T06:11:51.830Z,49.28
2022-08-16T06:12:53.815Z,49.14
2022-08-16T06:13:52.803Z,53.29
2022-08-16T06:14:51.390Z,46.04
2022-08-16T06:15:50.816Z,54.58
2022-08-16T06:16:51.167Z,44.54
2022-08-16T06:17:51.804Z,48.54
2022-08-16T06:18:50.749Z,47.63
2022-08-16T06:19:51.231Z,48.24
2022-08-16T06:20:55.229Z,49.51
2022-08-16T06:21:54.804Z,47.29
2022-08-16T06:23:02.816Z,48.98
2022-08-16T06:23:54.383Z,49.25
2022-08-16T06:24:53.902Z,50.93
2022-08-16T06:25:52.226Z,47.26
2022-08-16T06:26:57.866Z,49.58
2022-08-16T06:27:57.490Z,54.28
2022-08-16T06:28:52.511Z,47.97
2022-08-16T06:29:50.660Z,47.00
2022-08-16T06:30:50.659Z,53.26
2022-08-16T06:31:50.638Z,47.93
2022-08-16T06:32:50.865Z,48.63
2022-08-16T06:33:51.790Z,49.83
2022-08-16T06:34:55.803Z,48.78
2022-08-16T06:35:55.264Z,51.71
2022-08-16T06:36:51.574Z,46.87
2022-08-16T06:37:52.439Z,47.84
2022-08-16T06:38:56.084Z,45.76
2022-08-16T06:39:51.597Z,47.97
2022-08-16T06:40:50.570Z,47.46
2022-08-16T06:41:50.536Z,53.28
2022-08-16T06:42:55.294Z,52.53
2022-08-16T06:43:52.504Z,50.70
2022-08-16T06:44:50.500Z,48.90
2022-08-16T06:45:50.519Z,46.42
2022-08-16T06:46:50.883Z,48.18
2022-08-16T06:47:54.360Z,46.22
2022-08-16T06:48:51.638Z,47.76
2022-08-16T06:49:53.910Z,47.95
2022-08-16T06:50:50.457Z,48.55
2022-08-16T06:51:50.428Z,52.56
2022-08-16T06:52:57.766Z,46.15
2022-08-16T06:53:52.808Z,51.41
2022-08-16T06:54:50.407Z,47.07
2022-08-16T06:55:53.774Z,43.81
2022-08-16T06:56:52.420Z,52.23
2022-08-16T06:57:50.378Z,45.16
2022-08-16T06:58:50.395Z,45.40
2022-08-16T06:59:58.210Z,45.29
2022-08-16T07:00:51.435Z,49.48
2022-08-16T07:01:54.028Z,42.41
2022-08-16T07:02:51.310Z,41.25
2022-08-16T07:03:55.938Z,47.78
2022-08-16T07:04:52.761Z,45.73
2022-08-16T07:05:50.314Z,44.49
2022-08-16T07:06:50.264Z,40.77
2022-08-16T07:07:51.094Z,48.52
2022-08-16T07:08:50.260Z,45.40
2022-08-16T07:09:51.263Z,45.34
2022-08-16T07:10:50.247Z,44.78
2022-08-16T07:11:52.331Z,51.43
2022-08-16T07:13:04.458Z,49.29
2022-08-16T07:14:00.661Z,46.83
2022-08-16T07:14:52.167Z,49.83
2022-08-16T07:15:51.143Z,38.40
2022-08-16T07:16:50.194Z,44.57
2022-08-16T07:17:50.191Z,46.07
2022-08-16T07:18:58.151Z,44.77
2022-08-16T07:20:03.012Z,38.63
2022-08-16T07:20:51.189Z,46.78
2022-08-16T07:21:59.513Z,43.54
2022-08-16T07:22:53.090Z,41.60
2022-08-16T07:23:51.117Z,37.07
2022-08-16T07:24:51.114Z,42.25
2022-08-16T07:25:50.110Z,42.08
2022-08-16T07:26:50.075Z,45.07
2022-08-16T07:27:50.055Z,43.98
2022-08-16T07:28:50.043Z,42.09
2022-08-16T07:29:50.054Z,47.46
2022-08-16T07:30:51.064Z,43.18
2022-08-16T07:31:50.035Z,45.09
2022-08-16T07:32:51.746Z,39.85
2022-08-16T07:33:53.376Z,42.68
2022-08-16T07:34:49.999Z,39.85
2022-08-16T07:35:50.085Z,43.60
2022-08-16T07:36:58.111Z,45.30
2022-08-16T07:37:50.981Z,44.51
2022-08-16T07:38:50.149Z,39.50
2022-08-16T07:39:49.967Z,47.03
2022-08-16T07:40:59.716Z,37.73
2022-08-16T07:41:51.929Z,44.74
2022-08-16T07:42:50.189Z,46.43
2022-08-16T07:43:49.895Z,39.65
2022-08-16T07:44:50.726Z,41.62
2022-08-16T07:45:53.125Z,42.95
2022-08-16T07:46:55.614Z,50.34
2022-08-16T07:47:51.219Z,43.25
2022-08-16T07:48:49.869Z,44.75
2022-08-16T07:49:57.750Z,43.54
2022-08-16T07:50:57.384Z,43.25
2022-08-16T07:51:55.908Z,42.83
2022-08-16T07:52:50.996Z,46.66
2022-08-16T07:54:02.175Z,43.61
2022-08-16T07:54:53.276Z,48.99
2022-08-16T07:55:49.783Z,42.28
2022-08-16T07:56:49.793Z,42.21
2022-08-16T07:58:00.706Z,48.40
2022-08-16T07:58:55.437Z,46.01
2022-08-16T07:59:50.754Z,44.79
2022-08-16T08:00:49.799Z,41.71
2022-08-16T08:01:49.759Z,47.77
2022-08-16T08:02:52.174Z,44.47
2022-08-16T08:03:49.699Z,45.80
2022-08-16T08:04:49.735Z,45.75
2022-08-16T08:05:49.698Z,46.09
2022-08-16T08:06:50.915Z,43.34
2022-08-16T08:07:49.664Z,40.08
2022-08-16T08:08:52.590Z,41.41
2022-08-16T08:09:50.654Z,43.52
2022-08-16T08:10:49.645Z,44.13
2022-08-16T08:12:01.189Z,42.05
2022-08-16T08:12:51.076Z,40.51
2022-08-16T08:13:50.710Z,44.56
2022-08-16T08:14:49.656Z,40.84
2022-08-16T08:15:52.427Z,47.84
2022-08-16T08:16:49.590Z,42.68
2022-08-16T08:17:49.591Z,53.03
2022-08-16T08:18:50.198Z,44.61
2022-08-16T08:19:53.167Z,47.82
2022-08-16T08:20:58.913Z,42.80
2022-08-16T08:22:01.327Z,43.16
2022-08-16T08:22:50.540Z,43.63
2022-08-16T08:23:49.545Z,39.20
2022-08-16T08:24:49.514Z,44.88
2022-08-16T08:25:53.604Z,41.03
2022-08-16T08:26:50.716Z,45.88
2022-08-16T08:27:49.483Z,44.26
2022-08-16T08:28:50.500Z,43.57
2022-08-16T08:30:49.016Z,47.59
2022-08-16T08:31:02.465Z,43.35
2022-08-16T08:31:51.360Z,42.38
2022-08-16T08:32:59.837Z,46.18
2022-08-16T08:33:51.376Z,47.91
2022-08-16T08:34:49.418Z,45.09
2022-08-16T08:35:49.412Z,45.91
2022-08-16T08:36:49.411Z,45.49
2022-08-16T08:37:55.579Z,47.43
2022-08-16T08:38:50.432Z,40.58
2022-08-16T08:39:54.804Z,42.37
2022-08-16T08:40:50.338Z,41.34
2022-08-16T08:41:50.417Z,50.19
2022-08-16T08:42:49.721Z,46.33
2022-08-16T08:43:50.480Z,44.74
2022-08-16T08:44:49.304Z,45.76
2022-08-16T08:45:52.756Z,42.64
2022-08-16T08:47:00.648Z,40.05
2022-08-16T08:47:54.241Z,43.00
2022-08-16T08:48:59.529Z,46.01
2022-08-16T08:49:55.492Z,44.45
2022-08-16T08:50:50.398Z,43.54
2022-08-16T08:51:49.278Z,46.38
2022-08-16T08:52:49.427Z,44.12
2022-08-16T08:53:58.032Z,46.06
2022-08-16T08:54:50.571Z,44.53
2022-08-16T08:55:49.224Z,45.99
2022-08-16T08:56:50.239Z,46.73
2022-08-16T08:57:49.215Z,45.54
2022-08-16T08:58:53.906Z,48.02
2022-08-16T08:59:50.199Z,43.01
2022-08-16T09:00:51.444Z,44.39
2022-08-16T09:01:58.148Z,40.40
2022-08-16T09:02:52.277Z,46.37
2022-08-16T09:03:49.315Z,43.83
2022-08-16T09:04:49.152Z,38.44
2022-08-16T09:05:51.512Z,40.95
2022-08-16T09:06:50.148Z,45.32
2022-08-16T09:08:01.493Z,48.01
2022-08-16T09:08:50.101Z,48.44
2022-08-16T09:09:49.105Z,38.09
2022-08-16T09:10:59.174Z,41.75
2022-08-16T09:12:03.995Z,47.16
2022-08-16T09:12:51.344Z,42.61
2022-08-16T09:13:49.057Z,44.77
2022-08-16T09:14:50.899Z,47.44
2022-08-16T09:15:49.060Z,39.17
2022-08-16T09:17:03.893Z,50.46
2022-08-16T09:17:52.231Z,44.18
2022-08-16T09:18:54.875Z,37.37
2022-08-16T09:19:55.103Z,47.76
2022-08-16T09:20:59.625Z,46.00
2022-08-16T09:21:55.994Z,43.46
2022-08-16T09:22:51.349Z,47.63
2022-08-16T09:23:48.965Z,45.68
2022-08-16T09:24:53.340Z,39.54
2022-08-16T09:25:48.938Z,43.63
2022-08-16T09:26:49.100Z,40.90
2022-08-16T09:27:57.922Z,44.77
2022-08-16T09:29:14.475Z,43.71
2022-08-16T09:30:00.082Z,48.97
2022-08-16T09:30:49.899Z,46.50
2022-08-16T09:31:53.625Z,41.35
2022-08-16T09:32:49.013Z,46.37
2022-08-16T09:33:52.052Z,44.26
2022-08-16T09:34:48.858Z,36.26
2022-08-16T09:35:53.216Z,47.06
2022-08-16T09:36:48.855Z,43.99
2022-08-16T09:38:01.118Z,46.44
2022-08-16T09:38:49.832Z,48.65
2022-08-16T09:39:50.430Z,42.10
2022-08-16T09:40:49.842Z,41.35
2022-08-16T09:41:53.339Z,49.20
2022-08-16T09:42:56.078Z,40.81
2022-08-16T09:43:59.943Z,45.96
2022-08-16T09:45:12.490Z,40.55
2022-08-16T09:45:49.777Z,40.83
2022-08-16T09:46:49.975Z,38.93
2022-08-16T09:47:56.986Z,47.18
2022-08-16T09:48:51.016Z,44.15
2022-08-16T09:49:50.985Z,47.87
2022-08-16T09:50:48.714Z,45.90
2022-08-16T09:51:49.637Z,48.33
2022-08-16T09:52:48.928Z,43.59
2022-08-16T09:53:53.771Z,44.96
2022-08-16T09:54:49.670Z,42.93
2022-08-16T09:55:49.091Z,40.72
2022-08-16T09:56:52.300Z,39.96
2022-08-16T09:57:53.070Z,45.05
2022-08-16T09:59:05.689Z,42.01
2022-08-16T09:59:56.166Z,40.36
2022-08-16T10:00:49.650Z,42.53
2022-08-16T10:01:48.631Z,45.76
2022-08-16T10:02:48.649Z,45.77
2022-08-16T10:04:02.386Z,43.86
2022-08-16T10:04:54.596Z,43.93
2022-08-16T10:05:49.605Z,48.44
2022-08-16T10:06:48.698Z,44.23
2022-08-16T10:07:48.622Z,42.12
2022-08-16T10:08:55.411Z,50.70
2022-08-16T10:09:55.115Z,40.51
2022-08-16T10:10:49.532Z,48.67
2022-08-16T10:11:49.940Z,43.26
2022-08-16T10:12:55.576Z,43.72
2022-08-16T10:13:49.504Z,43.96
2022-08-16T10:14:48.510Z,45.72
2022-08-16T10:15:55.636Z,49.47
2022-08-16T10:16:49.458Z,48.21
2022-08-16T10:18:00.331Z,43.80
2022-08-16T10:19:00.462Z,44.13
2022-08-16T10:19:50.376Z,45.05
2022-08-16T10:20:48.426Z,46.72
2022-08-16T10:21:56.340Z,49.02
2022-08-16T10:22:54.156Z,46.05
2022-08-16T10:23:49.392Z,43.83
2022-08-16T10:24:56.020Z,45.21
2022-08-16T10:27:16.244Z,47.90
2022-08-16T10:27:17.214Z,44.27
2022-08-16T10:27:53.259Z,47.52
2022-08-16T10:28:50.509Z,39.98
2022-08-16T10:30:00.228Z,40.22
2022-08-16T10:30:56.320Z,46.15
2022-08-16T10:31:53.266Z,44.74
2022-08-16T10:32:48.333Z,50.81
2022-08-16T10:33:48.327Z,46.96
2022-08-16T10:34:48.312Z,44.62
2022-08-16T10:35:48.294Z,42.98
2022-08-16T10:36:48.289Z,43.74
2022-08-16T10:37:49.458Z,43.45
2022-08-16T10:38:48.263Z,38.32
2022-08-16T10:39:48.261Z,37.05
2022-08-16T10:40:48.251Z,41.81
2022-08-16T10:41:48.298Z,41.94
2022-08-16T10:42:48.395Z,39.67
2022-08-16T10:43:48.209Z,43.83
2022-08-16T10:44:53.969Z,47.27
2022-08-16T10:46:00.555Z,44.95
2022-08-16T10:46:49.187Z,49.16
2022-08-16T10:47:48.296Z,43.10
2022-08-16T10:48:49.160Z,41.12
2022-08-16T10:49:48.183Z,43.98
2022-08-16T10:50:48.166Z,44.69
2022-08-16T10:52:02.503Z,37.83
2022-08-16T10:52:50.239Z,46.98
2022-08-16T10:53:48.116Z,43.46
2022-08-16T10:55:57.432Z,40.22
2022-08-16T10:56:52.290Z,35.57
2022-08-16T10:57:49.262Z,38.90
2022-08-16T10:58:48.061Z,35.68
2022-08-16T10:59:56.103Z,45.05
2022-08-16T11:00:53.176Z,37.67
2022-08-16T11:02:58.780Z,37.09
2022-08-16T11:03:54.034Z,45.54
2022-08-16T11:05:05.970Z,44.67
2022-08-16T11:06:06.411Z,48.41
2022-08-16T11:07:52.300Z,39.76
2022-08-16T11:08:48.053Z,36.75
2022-08-16T11:09:47.989Z,38.87
2022-08-16T11:11:07.025Z,43.60
2022-08-16T11:12:52.795Z,44.34
2022-08-16T11:14:11.038Z,46.55
2022-08-16T11:15:19.679Z,35.37
2022-08-16T11:15:55.811Z,39.64
2022-08-16T11:17:10.461Z,41.94
2022-08-16T11:18:47.863Z,46.93
2022-08-16T11:19:06.409Z,37.25
2022-08-16T11:20:50.563Z,39.87
2022-08-16T11:22:49.892Z,40.42
2022-08-16T11:23:58.274Z,48.17
2022-08-16T11:25:11.779Z,41.47
2022-08-16T11:26:20.615Z,43.12
2022-08-16T11:27:18.479Z,46.60
2022-08-16T11:27:50.149Z,45.40
2022-08-16T11:29:49.828Z,42.40
2022-08-16T11:30:50.676Z,37.77
2022-08-16T11:31:54.243Z,40.39
2022-08-16T11:32:48.976Z,36.16
2022-08-16T11:33:55.479Z,44.06
2022-08-16T11:35:14.082Z,39.45
2022-08-16T11:36:59.309Z,46.08
2022-08-16T11:38:57.299Z,41.86
2022-08-16T11:39:48.782Z,39.94
2022-08-16T11:40:52.684Z,41.64
2022-08-16T11:41:49.355Z,41.50
2022-08-16T11:42:48.758Z,38.27
2022-08-16T11:43:47.688Z,44.29
2022-08-16T11:44:56.144Z,37.00
2022-08-16T11:45:53.629Z,39.35
2022-08-16T11:46:48.683Z,45.18
2022-08-16T11:47:47.896Z,42.72
2022-08-16T11:48:47.650Z,38.56
2022-08-16T11:49:47.633Z,42.51
2022-08-16T11:50:47.613Z,39.32
2022-08-16T11:51:47.616Z,45.90
2022-08-16T11:52:47.622Z,47.05
2022-08-16T11:53:47.679Z,39.34
2022-08-16T11:54:47.592Z,40.11
2022-08-16T11:55:50.469Z,38.14
2022-08-16T11:56:52.476Z,40.90
2022-08-16T11:57:48.787Z,39.10
2022-08-16T11:58:51.654Z,43.55
2022-08-16T11:59:48.537Z,42.88
2022-08-16T12:00:51.244Z,40.58
2022-08-16T12:01:59.266Z,40.55
2022-08-16T12:02:48.557Z,38.89
2022-08-16T12:03:47.530Z,36.92
2022-08-16T12:04:51.600Z,43.21
2022-08-16T12:05:51.908Z,39.13
2022-08-16T12:06:47.472Z,39.67
2022-08-16T12:07:47.611Z,44.07
2022-08-16T12:08:47.493Z,38.07
2022-08-16T12:09:47.434Z,44.52
2022-08-16T12:10:47.464Z,42.59
2022-08-16T12:11:47.497Z,41.82
2022-08-16T12:12:48.451Z,39.04
2022-08-16T12:13:47.438Z,41.46
2022-08-16T12:14:47.420Z,42.30
2022-08-16T12:15:47.599Z,47.16
2022-08-16T12:16:48.792Z,44.84
2022-08-16T12:17:48.513Z,38.13
2022-08-16T12:19:47.388Z,44.27
2022-08-16T12:20:47.334Z,40.43
2022-08-16T12:21:58.143Z,45.04
2022-08-16T12:22:48.480Z,37.47
2022-08-16T12:23:47.360Z,39.25
2022-08-16T12:24:47.916Z,46.52
2022-08-16T12:25:48.347Z,34.49
2022-08-16T12:26:47.334Z,35.93
2022-08-16T12:27:47.345Z,41.68
2022-08-16T12:28:55.183Z,38.75
2022-08-16T12:29:48.323Z,35.06
2022-08-16T12:30:47.287Z,34.60
2022-08-16T12:32:00.749Z,38.27
2022-08-16T12:32:53.275Z,38.95
2022-08-16T12:33:48.266Z,42.97
2022-08-16T12:34:47.970Z,37.41
2022-08-16T12:35:48.221Z,37.78
2022-08-16T12:36:47.248Z,43.11
2022-08-16T12:37:47.398Z,38.14
2022-08-16T12:38:48.181Z,35.19
2022-08-16T12:39:51.154Z,38.50
2022-08-16T12:40:47.220Z,42.59
2022-08-16T12:41:47.233Z,32.64
2022-08-16T12:42:49.117Z,38.06
2022-08-16T12:43:48.201Z,40.80
2022-08-16T12:44:47.183Z,39.62
2022-08-16T12:45:47.291Z,36.98
2022-08-16T12:46:47.612Z,49.10
2022-08-16T12:47:47.150Z,40.92
2022-08-16T12:48:47.149Z,38.13
2022-08-16T12:49:47.116Z,37.78
2022-08-16T12:50:50.219Z,46.67
2022-08-16T12:51:59.260Z,37.88
2022-08-16T12:52:52.298Z,39.48
2022-08-16T12:53:47.070Z,41.44
2022-08-16T12:54:54.999Z,43.36
2022-08-16T12:55:48.025Z,45.60
2022-08-16T12:56:47.137Z,41.34
2022-08-16T12:57:47.046Z,44.07
2022-08-16T12:58:50.263Z,43.09
2022-08-16T12:59:47.045Z,42.63
2022-08-16T13:00:47.064Z,45.26
2022-08-16T13:01:46.988Z,40.76